ADDS METAR Data INFO
IDs: Format: Raw Decoded Include TAF

Data at: 2337 UTC 15 Dec 2017

KTVF 152331Z AUTO 11010KT 3SM -SN BR BKN022 OVC029 M08/M11 A2968 RMK AO2 P0000 FZRANO
KTVF 152315Z AUTO 11009KT 1 1/2SM -SN BR BKN020 OVC036 M08/M11 A2968 RMK AO2 P0000 FZRANO
KTVF 152301Z AUTO 12009KT 2 1/2SM -SN BR SCT022 BKN032 OVC039 M08/M10 A2968 RMK AO2 VIS 1 1/2V4 P0000 FZRANO
KTVF 152252Z AUTO 12008KT 3SM -SN BR BKN036 OVC048 M08/M10 A2968 RMK AO2 P0000 FZRANO
KTVF 152224Z AUTO 13009KT 2SM -SN BR FEW020 SCT030 OVC038 M08/M10 A2969 RMK AO2 P0000 FZRANO TSNO
KTVF 152219Z AUTO 13008KT 1SM -SN BR FEW020 BKN028 OVC038 M08/M11 A2968 RMK AO2 P0000 FZRANO
KTVF 152215Z AUTO 13009KT 1 1/4SM -SN BR SCT020 BKN031 OVC038 M08/M11 A2968 RMK AO2 SLP077 P0000 T10831106 FZRANO
KTVF 152201Z AUTO 13008KT 1 3/4SM -SN BR SCT015 OVC030 M08/M11 A2969 RMK AO2 P0000 FZRANO
KTVF 152158Z AUTO 13008KT 2SM -SN BR SCT015 BKN030 OVC046 M08/M11 A2969 RMK AO2 P0000 FZRANO
KTVF 152001Z AUTO 14008KT 9SM -SN OVC015 M09/M11 A2971 RMK AO2 SNB1927 SLP086 P0000 T10891111 FZRANO
KTVF 151901Z AUTO 16007KT 9SM OVC019 M09/M11 A2974 RMK AO2 SNB1847E1857 SLP096 P0000 T10891111 FZRANO
KTVF 151801Z AUTO 14009KT 10SM OVC025 M09/M12 A2978 RMK AO2 SNE1734 SLP109 P0000 60000 T10941117 11094 21144 56012 FZRANO
KTVF 151744Z AUTO 15006KT 10SM OVC029 M09/M12 A2979 RMK AO2 SNE34 P0000 FZRANO
KTVF 151701Z AUTO 15005KT 9SM -SN OVC033 M10/M12 A2982 RMK AO2 SLP122 P0000 T11001117 FZRANO
KTVF 151601Z AUTO 14005KT 7SM -SN OVC037 M11/M13 A2983 RMK AO2 SLP128 P0000 T11111128 FZRANO
KTVF 151531Z AUTO 14005KT 5SM -SN BR FEW002 SCT040 BKN049 M12/M13 A2983 RMK AO2 P0000 FZRANO
KTVF 151522Z AUTO 13004KT 1 3/4SM -SN BR FEW002 BKN095 M12/M13 A2983 RMK AO2 P0000 FZRANO
KTVF 151501Z AUTO 13003KT 9SM -SN OVC095 M12/M14 A2983 RMK AO2 SNB1415 SLP129 P0000 60000 T11221139 58019 FZRANO
KTVF 151401Z AUTO 19003KT 10SM OVC100 M13/M14 A2985 RMK AO2 SLP137 T11281139 FZRANO
KTVF 151301Z AUTO 00000KT 10SM OVC100 M13/M15 A2987 RMK AO2 SLP144 T11331150 FZRANO
KTVF 151201Z AUTO 00000KT 10SM FEW100 M14/M16 A2989 RMK AO2 SLP150 60000 T11391156 11100 21139 58012 FZRANO
KTVF 151101Z AUTO 00000KT 10SM SCT013 OVC090 M13/M14 A2991 RMK AO2 SLP156 T11281139 FZRANO
KTVF 151001Z AUTO 26004KT 10SM OVC090 M12/M13 A2993 RMK AO2 SLP160 T11171133 FZRANO
KTVF 150901Z AUTO 00000KT 10SM OVC090 M11/M13 A2993 RMK AO2 SNE0833 SLP162 P0000 60000 T11111133 56011 FZRANO
KTVF 150842Z AUTO 07003KT 10SM FEW016 OVC090 M11/M13 A2994 RMK AO2 SNE33 P0000 FZRANO
KTVF 150801Z AUTO 02005KT 9SM -SN OVC016 M11/M13 A2995 RMK AO2 SLP166 P0000 T11061128 FZRANO
KTVF 150701Z AUTO 01006KT 9SM -SN OVC018 M11/M13 A2996 RMK AO2 SNB0604E0617B0653 SLP172 P0000 T11061128 FZRANO
KTVF 150642Z AUTO 36007KT 10SM FEW012 OVC020 M11/M12 A2996 RMK AO2 SNB04E17 P0000 FZRANO
KTVF 150601Z AUTO 33007KT 10SM BKN012 M11/M12 A2996 RMK AO2 SNB05040521E0525 SLP170 P0000 60000 T11061122 11083 21106 410831106 58007 FZRANO
KTVF 150501Z AUTO 34014KT 9SM -SN OVC010 M08/M10 A2998 RMK AO2 SNB0421 CIG 007V014 P0000 410831083 FZRANO
KTVF 150424Z AUTO 29005KT 10SM -SN BKN009 OVC013 M09/M10 A2999 RMK AO2 SNB21 P0000 FZRANO
KTVF 150408Z AUTO 29005KT 10SM FEW009 OVC013 M09/M10 A2999 RMK AO2 FZRANO
KTVF 150401Z AUTO 29005KT 9SM OVC015 M09/M10 A2999 RMK AO2 SNE0359 SLP181 P0000 T10891100 FZRANO
KTVF 150358Z AUTO 29006KT 9SM -SN FEW008 OVC015 M09/M10 A2999 RMK AO2 P0000 FZRANO
KTVF 150321Z AUTO 30008KT 9SM -SN BKN014 BKN018 OVC032 M09/M10 A3000 RMK AO2 P0000 FZRANO
KTVF 150301Z AUTO 27007KT 9SM -SN FEW025 OVC032 M09/M11 A3000 RMK AO2 P0000 FZRANO
KTVF 150201Z AUTO 26005KT 6SM -SN BR FEW023 SCT028 OVC042 M09/M11 A3001 RMK AO2 SNE0130B0149 SLP189 P0000 T10941111 FZRANO
KTVF 150101Z AUTO 26003KT 9SM -SN OVC038 M10/M12 A3001 RMK AO2 SLP188 P0000 T11001117 FZRANO
KTVF 150001Z AUTO 31005KT 10SM -SN OVC043 M10/M12 A3003 RMK AO2 SLP195 P0000 60000 T11001117 11089 21100 51003 FZRANO
KTVF 142326Z AUTO 31007KT 9SM -SN FEW014 SCT025 OVC045 M09/M12 A3004 RMK AO2 P0000 FZRANO
KTVF 142301Z AUTO 31007KT 8SM -SN OVC014 M09/M12 A3004 RMK AO2 SLP197 P0000 T10941117 FZRANO
KTVF 142201Z AUTO 32013KT 9SM -SN OVC016 M10/M12 A3004 RMK AO2 SLP198 P0000 T11001122 FZRANO
KTVF 142101Z AUTO 31012KT 7SM -SN OVC016 M09/M12 A3003 RMK AO2 SLP195 P0000 60000 T10941122 58004 FZRANO
KTVF 142040Z AUTO 31011KT 5SM -SN BR OVC016 M09/M12 A3003 RMK AO2 P0000 FZRANO
KTVF 142001Z AUTO 31015KT 4SM -SN OVC014 M09/M12 A3003 RMK AO2 SLP195 P0000 T10891117 FZRANO
KTVF 141943Z AUTO 32012KT 7SM -SN OVC014 M09/M12 A3003 RMK AO2 P0000 FZRANO
KTVF 141901Z AUTO 32012KT 8SM -SN OVC016 M09/M12 A3004 RMK AO2 SLP199 P0000 T10941122 FZRANO
KTVF 141815Z AUTO 33018G22KT 4SM -SN OVC018 M09/M12 A3004 RMK AO2 P0000 FZRANO
KTVF 141801Z AUTO 33017KT 2 1/2SM -SN BR OVC018 M09/M11 A3004 RMK AO2 VIS 1 1/4V5 P0000 FZRANO
KTVF 141756Z AUTO 32019KT 3SM -SN BR OVC016 M09/M11 A3004 RMK AO2 P0000 FZRANO
KTVF 141737Z AUTO 35013KT 4SM -SN BR OVC014 M08/M11 A3004 RMK AO2 P0000 FZRANO
KTVF 141701Z AUTO 33013KT 9SM -SN OVC017 M08/M11 A3004 RMK AO2 SLP198 P0000 T10781106 FZRANO
KTVF 141645Z AUTO 32012KT 4SM -SN BR OVC015 M08/M10 A3004 RMK AO2 P0000 FZRANO
KTVF 141623Z AUTO 33019KT 2SM -SN BR OVC015 M08/M10 A3004 RMK AO2 VIS 1 1/4V4 P0000 FZRANO
KTVF 141601Z AUTO 33016KT 9SM -SN OVC011 M08/M09 A3004 RMK AO2 CIG 009V014 SLP196 P0000 T10781094 FZRANO
KTVF 141548Z AUTO 32011KT 9SM -SN OVC011 M08/M09 A3003 RMK AO2 P0000 FZRANO
KTVF 141514Z AUTO 31008KT 9SM -SN SCT013 OVC019 M08/M10 A3002 RMK AO2 P0000 FZRANO
KTVF 141501Z AUTO 31008KT 9SM BKN013 OVC019 M09/M10 A3001 RMK AO2 SNE1459 P0000 FZRANO
KTVF 141422Z AUTO 30008KT 9SM -SN OVC015 M09/M11 A3000 RMK AO2 P0000 FZRANO
KTVF 141401Z AUTO 28007KT 8SM -SN BKN010 OVC019 M09/M11 A3000 RMK AO2 SLP185 P0000 T10941106 FZRANO
KTVF 141301Z AUTO 28007KT 10SM -SN OVC010 M09/M11 A2999 RMK AO2 SNE1240B1259 SLP180 P0000 T10941111 FZRANO
KTVF 141201Z AUTO 26006KT 9SM -SN OVC012 M10/M11 A2998 RMK AO2 SLP177 P0000 60000 T11001111 11100 21111 55002 FZRANO